sensor_id;sensor_type;location;lat;lon;timestamp;P1;durP1;ratioP1;P2;durP2;ratioP2
3405;SDS011;10008;48.682;9.016;2022-11-20T00:00:49;9.70;;;5.47;;
3405;SDS011;10008;48.682;9.016;2022-11-20T00:03:14;10.83;;;6.43;;
3405;SDS011;10008;48.682;9.016;2022-11-20T00:05:40;8.90;;;5.57;;
3405;SDS011;10008;48.682;9.016;2022-11-20T00:08:06;10.73;;;5.73;;
3405;SDS011;10008;48.682;9.016;2022-11-20T00:10:32;9.50;;;5.60;;
3405;SDS011;10008;48.682;9.016;2022-11-20T00:13:00;9.17;;;6.07;;
3405;SDS011;10008;48.682;9.016;2022-11-20T00:15:26;10.60;;;6.23;;
3405;SDS011;10008;48.682;9.016;2022-11-20T00:17:52;12.07;;;5.90;;
3405;SDS011;10008;48.682;9.016;2022-11-20T00:20:18;9.83;;;6.00;;
3405;SDS011;10008;48.682;9.016;2022-11-20T00:22:43;9.87;;;5.73;;
3405;SDS011;10008;48.682;9.016;2022-11-20T00:25:09;8.20;;;5.37;;
3405;SDS011;10008;48.682;9.016;2022-11-20T00:27:35;11.17;;;5.60;;
3405;SDS011;10008;48.682;9.016;2022-11-20T00:30:01;8.43;;;4.90;;
3405;SDS011;10008;48.682;9.016;2022-11-20T00:32:26;8.77;;;5.33;;
3405;SDS011;10008;48.682;9.016;2022-11-20T00:34:52;7.90;;;4.70;;
3405;SDS011;10008;48.682;9.016;2022-11-20T00:37:18;9.03;;;4.87;;
3405;SDS011;10008;48.682;9.016;2022-11-20T00:39:43;10.53;;;5.53;;
3405;SDS011;10008;48.682;9.016;2022-11-20T00:42:09;8.60;;;5.10;;
3405;SDS011;10008;48.682;9.016;2022-11-20T00:44:35;7.97;;;4.90;;
3405;SDS011;10008;48.682;9.016;2022-11-20T00:47:01;7.47;;;4.40;;
3405;SDS011;10008;48.682;9.016;2022-11-20T00:49:26;9.30;;;4.80;;
3405;SDS011;10008;48.682;9.016;2022-11-20T00:51:52;8.07;;;4.63;;
3405;SDS011;10008;48.682;9.016;2022-11-20T00:54:18;10.30;;;5.10;;
3405;SDS011;10008;48.682;9.016;2022-11-20T00:56:44;8.60;;;4.90;;
3405;SDS011;10008;48.682;9.016;2022-11-20T00:59:09;7.97;;;4.20;;
3405;SDS011;10008;48.682;9.016;2022-11-20T01:01:36;6.80;;;3.97;;
3405;SDS011;10008;48.682;9.016;2022-11-20T01:04:02;8.80;;;4.40;;
3405;SDS011;10008;48.682;9.016;2022-11-20T01:08:59;7.30;;;4.10;;
3405;SDS011;10008;48.682;9.016;2022-11-20T01:11:37;7.67;;;3.80;;
3405;SDS011;10008;48.682;9.016;2022-11-20T01:14:06;7.80;;;4.40;;
3405;SDS011;10008;48.682;9.016;2022-11-20T01:16:39;8.20;;;4.00;;
3405;SDS011;10008;48.682;9.016;2022-11-20T01:19:07;7.93;;;4.20;;
3405;SDS011;10008;48.682;9.016;2022-11-20T01:21:37;9.80;;;4.50;;
3405;SDS011;10008;48.682;9.016;2022-11-20T01:24:06;7.20;;;4.10;;
3405;SDS011;10008;48.682;9.016;2022-11-20T01:26:34;7.77;;;4.30;;
3405;SDS011;10008;48.682;9.016;2022-11-20T01:29:01;9.23;;;4.27;;
3405;SDS011;10008;48.682;9.016;2022-11-20T01:31:32;8.10;;;4.33;;
3405;SDS011;10008;48.682;9.016;2022-11-20T01:34:03;7.07;;;4.33;;
3405;SDS011;10008;48.682;9.016;2022-11-20T01:36:32;9.07;;;4.20;;
3405;SDS011;10008;48.682;9.016;2022-11-20T01:39:04;10.17;;;4.70;;
3405;SDS011;10008;48.682;9.016;2022-11-20T01:41:32;7.90;;;4.73;;
3405;SDS011;10008;48.682;9.016;2022-11-20T01:44:19;6.83;;;4.20;;
3405;SDS011;10008;48.682;9.016;2022-11-20T01:50:09;8.50;;;4.87;;
3405;SDS011;10008;48.682;9.016;2022-11-20T01:52:46;7.10;;;3.83;;
3405;SDS011;10008;48.682;9.016;2022-11-20T01:55:27;7.60;;;4.20;;
3405;SDS011;10008;48.682;9.016;2022-11-20T01:57:58;7.60;;;4.33;;
3405;SDS011;10008;48.682;9.016;2022-11-20T02:00:24;7.73;;;4.03;;
3405;SDS011;10008;48.682;9.016;2022-11-20T02:02:55;7.33;;;4.10;;
3405;SDS011;10008;48.682;9.016;2022-11-20T02:05:33;8.10;;;4.30;;
3405;SDS011;10008;48.682;9.016;2022-11-20T02:08:04;8.13;;;4.80;;
3405;SDS011;10008;48.682;9.016;2022-11-20T02:10:31;9.43;;;4.30;;
3405;SDS011;10008;48.682;9.016;2022-11-20T02:12:58;7.80;;;4.43;;
3405;SDS011;10008;48.682;9.016;2022-11-20T02:15:43;7.50;;;4.20;;
3405;SDS011;10008;48.682;9.016;2022-11-20T02:18:09;6.60;;;3.93;;
3405;SDS011;10008;48.682;9.016;2022-11-20T02:20:37;10.80;;;4.37;;
3405;SDS011;10008;48.682;9.016;2022-11-20T02:23:12;8.30;;;4.70;;
3405;SDS011;10008;48.682;9.016;2022-11-20T02:25:42;9.47;;;4.60;;
3405;SDS011;10008;48.682;9.016;2022-11-20T02:28:10;11.10;;;5.00;;
3405;SDS011;10008;48.682;9.016;2022-11-20T02:30:36;10.30;;;5.60;;
3405;SDS011;10008;48.682;9.016;2022-11-20T02:33:02;9.47;;;6.10;;
3405;SDS011;10008;48.682;9.016;2022-11-20T02:37:54;10.30;;;6.70;;
3405;SDS011;10008;48.682;9.016;2022-11-20T02:40:21;10.03;;;6.40;;
3405;SDS011;10008;48.682;9.016;2022-11-20T02:42:47;10.90;;;6.60;;
3405;SDS011;10008;48.682;9.016;2022-11-20T02:45:13;11.47;;;7.50;;
3405;SDS011;10008;48.682;9.016;2022-11-20T02:47:38;9.70;;;6.67;;
3405;SDS011;10008;48.682;9.016;2022-11-20T02:50:04;12.43;;;7.07;;
3405;SDS011;10008;48.682;9.016;2022-11-20T02:52:31;13.93;;;7.57;;
3405;SDS011;10008;48.682;9.016;2022-11-20T02:54:57;14.10;;;7.20;;
3405;SDS011;10008;48.682;9.016;2022-11-20T02:57:22;13.13;;;7.30;;
3405;SDS011;10008;48.682;9.016;2022-11-20T02:59:48;12.13;;;7.10;;
3405;SDS011;10008;48.682;9.016;2022-11-20T03:02:14;13.60;;;6.57;;
3405;SDS011;10008;48.682;9.016;2022-11-20T03:04:39;10.27;;;6.90;;
3405;SDS011;10008;48.682;9.016;2022-11-20T03:07:05;9.90;;;6.90;;
3405;SDS011;10008;48.682;9.016;2022-11-20T03:09:32;11.30;;;7.23;;
3405;SDS011;10008;48.682;9.016;2022-11-20T03:11:58;11.43;;;7.30;;
3405;SDS011;10008;48.682;9.016;2022-11-20T03:14:24;10.20;;;7.30;;
3405;SDS011;10008;48.682;9.016;2022-11-20T03:16:49;12.47;;;7.77;;
3405;SDS011;10008;48.682;9.016;2022-11-20T03:19:15;12.50;;;7.40;;
3405;SDS011;10008;48.682;9.016;2022-11-20T03:21:41;12.50;;;8.00;;
3405;SDS011;10008;48.682;9.016;2022-11-20T03:24:07;11.80;;;8.20;;
3405;SDS011;10008;48.682;9.016;2022-11-20T03:26:33;12.37;;;7.63;;
3405;SDS011;10008;48.682;9.016;2022-11-20T03:28:59;15.30;;;7.93;;
3405;SDS011;10008;48.682;9.016;2022-11-20T03:31:28;12.43;;;7.90;;
3405;SDS011;10008;48.682;9.016;2022-11-20T03:33:57;11.90;;;7.67;;
3405;SDS011;10008;48.682;9.016;2022-11-20T03:36:24;11.17;;;7.50;;
3405;SDS011;10008;48.682;9.016;2022-11-20T03:38:50;13.57;;;7.90;;
3405;SDS011;10008;48.682;9.016;2022-11-20T03:41:19;11.10;;;7.37;;
3405;SDS011;10008;48.682;9.016;2022-11-20T03:43:53;13.20;;;7.40;;
3405;SDS011;10008;48.682;9.016;2022-11-20T03:46:20;11.70;;;7.03;;
3405;SDS011;10008;48.682;9.016;2022-11-20T03:48:46;11.53;;;7.70;;
3405;SDS011;10008;48.682;9.016;2022-11-20T03:53:40;10.97;;;6.77;;
3405;SDS011;10008;48.682;9.016;2022-11-20T03:56:07;13.57;;;7.90;;
3405;SDS011;10008;48.682;9.016;2022-11-20T03:58:34;12.27;;;7.90;;
3405;SDS011;10008;48.682;9.016;2022-11-20T04:01:08;13.87;;;8.10;;
3405;SDS011;10008;48.682;9.016;2022-11-20T04:03:35;13.40;;;7.50;;
3405;SDS011;10008;48.682;9.016;2022-11-20T04:06:12;10.30;;;6.90;;
3405;SDS011;10008;48.682;9.016;2022-11-20T04:08:39;13.60;;;6.90;;
3405;SDS011;10008;48.682;9.016;2022-11-20T04:13:39;14.50;;;7.07;;
3405;SDS011;10008;48.682;9.016;2022-11-20T04:16:06;11.80;;;7.50;;
3405;SDS011;10008;48.682;9.016;2022-11-20T04:18:33;11.70;;;6.73;;
3405;SDS011;10008;48.682;9.016;2022-11-20T04:20:58;11.97;;;7.27;;
3405;SDS011;10008;48.682;9.016;2022-11-20T04:23:25;10.87;;;6.57;;
3405;SDS011;10008;48.682;9.016;2022-11-20T04:25:51;12.93;;;6.83;;
3405;SDS011;10008;48.682;9.016;2022-11-20T04:28:17;12.10;;;5.70;;
3405;SDS011;10008;48.682;9.016;2022-11-20T04:30:43;11.43;;;6.33;;
3405;SDS011;10008;48.682;9.016;2022-11-20T04:33:09;9.67;;;6.53;;
3405;SDS011;10008;48.682;9.016;2022-11-20T04:35:35;9.30;;;6.07;;
3405;SDS011;10008;48.682;9.016;2022-11-20T04:38:01;9.80;;;6.37;;
3405;SDS011;10008;48.682;9.016;2022-11-20T04:40:28;13.43;;;6.73;;
3405;SDS011;10008;48.682;9.016;2022-11-20T04:42:54;8.93;;;5.73;;
3405;SDS011;10008;48.682;9.016;2022-11-20T04:45:20;9.30;;;5.90;;
3405;SDS011;10008;48.682;9.016;2022-11-20T04:47:47;10.67;;;5.90;;
3405;SDS011;10008;48.682;9.016;2022-11-20T04:50:12;10.90;;;6.40;;
3405;SDS011;10008;48.682;9.016;2022-11-20T04:52:38;13.50;;;5.67;;
3405;SDS011;10008;48.682;9.016;2022-11-20T04:55:04;8.37;;;5.73;;
3405;SDS011;10008;48.682;9.016;2022-11-20T04:57:30;11.40;;;6.67;;
3405;SDS011;10008;48.682;9.016;2022-11-20T04:59:56;8.60;;;5.60;;
3405;SDS011;10008;48.682;9.016;2022-11-20T05:02:21;9.20;;;6.10;;
3405;SDS011;10008;48.682;9.016;2022-11-20T05:04:48;9.87;;;5.97;;
3405;SDS011;10008;48.682;9.016;2022-11-20T05:07:13;10.73;;;5.70;;
3405;SDS011;10008;48.682;9.016;2022-11-20T05:09:41;12.30;;;6.30;;
3405;SDS011;10008;48.682;9.016;2022-11-20T05:12:07;9.10;;;5.87;;
3405;SDS011;10008;48.682;9.016;2022-11-20T05:14:33;8.77;;;5.53;;
3405;SDS011;10008;48.682;9.016;2022-11-20T05:16:59;8.93;;;5.60;;
3405;SDS011;10008;48.682;9.016;2022-11-20T05:19:25;9.30;;;5.67;;
3405;SDS011;10008;48.682;9.016;2022-11-20T05:21:51;10.93;;;6.30;;
3405;SDS011;10008;48.682;9.016;2022-11-20T05:24:17;8.93;;;5.50;;
3405;SDS011;10008;48.682;9.016;2022-11-20T05:26:42;12.73;;;5.20;;
3405;SDS011;10008;48.682;9.016;2022-11-20T05:29:11;8.87;;;5.10;;
3405;SDS011;10008;48.682;9.016;2022-11-20T05:31:38;12.33;;;5.23;;
3405;SDS011;10008;48.682;9.016;2022-11-20T05:34:05;10.37;;;5.63;;
3405;SDS011;10008;48.682;9.016;2022-11-20T05:36:31;8.53;;;5.10;;
3405;SDS011;10008;48.682;9.016;2022-11-20T05:38:57;9.37;;;5.37;;
3405;SDS011;10008;48.682;9.016;2022-11-20T05:41:23;7.87;;;5.00;;
3405;SDS011;10008;48.682;9.016;2022-11-20T05:43:49;7.70;;;4.90;;
3405;SDS011;10008;48.682;9.016;2022-11-20T05:46:16;7.50;;;4.57;;
3405;SDS011;10008;48.682;9.016;2022-11-20T05:48:43;8.90;;;4.80;;
3405;SDS011;10008;48.682;9.016;2022-11-20T05:51:11;9.20;;;4.17;;
3405;SDS011;10008;48.682;9.016;2022-11-20T05:53:39;8.93;;;4.90;;
3405;SDS011;10008;48.682;9.016;2022-11-20T05:56:26;7.63;;;4.20;;
3405;SDS011;10008;48.682;9.016;2022-11-20T05:58:51;6.50;;;3.83;;
3405;SDS011;10008;48.682;9.016;2022-11-20T06:01:20;7.57;;;4.37;;
3405;SDS011;10008;48.682;9.016;2022-11-20T06:03:48;6.73;;;3.60;;
3405;SDS011;10008;48.682;9.016;2022-11-20T06:06:15;9.20;;;4.90;;
3405;SDS011;10008;48.682;9.016;2022-11-20T06:08:43;7.13;;;4.50;;
3405;SDS011;10008;48.682;9.016;2022-11-20T06:11:09;9.03;;;4.30;;
3405;SDS011;10008;48.682;9.016;2022-11-20T06:13:37;10.60;;;4.97;;
3405;SDS011;10008;48.682;9.016;2022-11-20T06:16:03;8.60;;;4.90;;
3405;SDS011;10008;48.682;9.016;2022-11-20T06:18:29;7.97;;;4.67;;
3405;SDS011;10008;48.682;9.016;2022-11-20T06:21:02;8.67;;;4.13;;
3405;SDS011;10008;48.682;9.016;2022-11-20T06:23:38;7.27;;;4.07;;
3405;SDS011;10008;48.682;9.016;2022-11-20T06:26:07;7.33;;;4.10;;
3405;SDS011;10008;48.682;9.016;2022-11-20T06:28:35;8.10;;;4.67;;
3405;SDS011;10008;48.682;9.016;2022-11-20T06:31:01;7.63;;;4.50;;
3405;SDS011;10008;48.682;9.016;2022-11-20T06:33:27;8.07;;;4.40;;
3405;SDS011;10008;48.682;9.016;2022-11-20T06:35:55;7.73;;;4.60;;
3405;SDS011;10008;48.682;9.016;2022-11-20T06:38:22;7.63;;;4.40;;
3405;SDS011;10008;48.682;9.016;2022-11-20T06:40:48;7.90;;;4.83;;
3405;SDS011;10008;48.682;9.016;2022-11-20T06:43:14;7.47;;;4.30;;
3405;SDS011;10008;48.682;9.016;2022-11-20T06:45:40;6.37;;;4.00;;
3405;SDS011;10008;48.682;9.016;2022-11-20T06:48:06;10.30;;;5.03;;
3405;SDS011;10008;48.682;9.016;2022-11-20T06:50:31;7.20;;;4.20;;
3405;SDS011;10008;48.682;9.016;2022-11-20T06:52:59;8.67;;;5.13;;
3405;SDS011;10008;48.682;9.016;2022-11-20T06:55:27;7.77;;;4.63;;
3405;SDS011;10008;48.682;9.016;2022-11-20T06:57:53;7.30;;;4.63;;
3405;SDS011;10008;48.682;9.016;2022-11-20T07:00:18;9.40;;;4.07;;
3405;SDS011;10008;48.682;9.016;2022-11-20T07:02:44;7.20;;;4.10;;
3405;SDS011;10008;48.682;9.016;2022-11-20T07:05:10;7.23;;;3.93;;
3405;SDS011;10008;48.682;9.016;2022-11-20T07:07:35;8.10;;;4.43;;
3405;SDS011;10008;48.682;9.016;2022-11-20T07:10:01;7.13;;;4.30;;
3405;SDS011;10008;48.682;9.016;2022-11-20T07:12:27;6.90;;;3.80;;
3405;SDS011;10008;48.682;9.016;2022-11-20T07:14:53;6.37;;;3.80;;
3405;SDS011;10008;48.682;9.016;2022-11-20T07:17:19;7.07;;;3.40;;
3405;SDS011;10008;48.682;9.016;2022-11-20T07:19:44;6.60;;;3.83;;
3405;SDS011;10008;48.682;9.016;2022-11-20T07:22:10;5.47;;;3.33;;
3405;SDS011;10008;48.682;9.016;2022-11-20T07:24:36;6.50;;;3.10;;
3405;SDS011;10008;48.682;9.016;2022-11-20T07:27:01;6.80;;;3.50;;
3405;SDS011;10008;48.682;9.016;2022-11-20T07:29:27;7.07;;;3.57;;
3405;SDS011;10008;48.682;9.016;2022-11-20T07:31:53;6.40;;;3.87;;
3405;SDS011;10008;48.682;9.016;2022-11-20T07:34:20;7.17;;;3.40;;
3405;SDS011;10008;48.682;9.016;2022-11-20T07:36:46;6.87;;;3.23;;
3405;SDS011;10008;48.682;9.016;2022-11-20T07:39:12;6.40;;;3.17;;
3405;SDS011;10008;48.682;9.016;2022-11-20T07:41:37;5.63;;;3.13;;
3405;SDS011;10008;48.682;9.016;2022-11-20T07:44:03;6.13;;;3.30;;
3405;SDS011;10008;48.682;9.016;2022-11-20T07:46:29;5.40;;;2.80;;
3405;SDS011;10008;48.682;9.016;2022-11-20T07:48:54;5.30;;;2.90;;
3405;SDS011;10008;48.682;9.016;2022-11-20T07:51:20;4.90;;;2.40;;
3405;SDS011;10008;48.682;9.016;2022-11-20T07:53:46;5.20;;;2.63;;
3405;SDS011;10008;48.682;9.016;2022-11-20T07:56:12;5.17;;;2.87;;
3405;SDS011;10008;48.682;9.016;2022-11-20T07:58:39;5.80;;;2.50;;
3405;SDS011;10008;48.682;9.016;2022-11-20T08:01:05;4.77;;;2.67;;
3405;SDS011;10008;48.682;9.016;2022-11-20T08:03:33;5.40;;;2.63;;
3405;SDS011;10008;48.682;9.016;2022-11-20T08:06:00;4.97;;;2.63;;
3405;SDS011;10008;48.682;9.016;2022-11-20T08:08:27;5.17;;;2.30;;
3405;SDS011;10008;48.682;9.016;2022-11-20T08:10:53;4.87;;;2.60;;
3405;SDS011;10008;48.682;9.016;2022-11-20T08:13:38;6.37;;;2.70;;
3405;SDS011;10008;48.682;9.016;2022-11-20T08:16:23;6.00;;;2.60;;
3405;SDS011;10008;48.682;9.016;2022-11-20T08:18:48;7.67;;;3.47;;
3405;SDS011;10008;48.682;9.016;2022-11-20T08:21:14;7.30;;;2.93;;
3405;SDS011;10008;48.682;9.016;2022-11-20T08:23:40;6.77;;;2.80;;
3405;SDS011;10008;48.682;9.016;2022-11-20T08:26:06;5.20;;;2.60;;
3405;SDS011;10008;48.682;9.016;2022-11-20T08:28:31;7.07;;;3.40;;
3405;SDS011;10008;48.682;9.016;2022-11-20T08:30:58;5.63;;;3.13;;
3405;SDS011;10008;48.682;9.016;2022-11-20T08:33:25;7.63;;;3.47;;
3405;SDS011;10008;48.682;9.016;2022-11-20T08:35:51;7.00;;;3.27;;
3405;SDS011;10008;48.682;9.016;2022-11-20T08:38:17;5.50;;;2.93;;
3405;SDS011;10008;48.682;9.016;2022-11-20T08:40:42;5.70;;;2.87;;
3405;SDS011;10008;48.682;9.016;2022-11-20T08:43:31;5.10;;;2.97;;
3405;SDS011;10008;48.682;9.016;2022-11-20T08:45:57;6.13;;;3.80;;
3405;SDS011;10008;48.682;9.016;2022-11-20T08:48:23;5.27;;;2.37;;
3405;SDS011;10008;48.682;9.016;2022-11-20T08:50:48;4.77;;;2.07;;
3405;SDS011;10008;48.682;9.016;2022-11-20T08:53:14;5.77;;;2.50;;
3405;SDS011;10008;48.682;9.016;2022-11-20T08:55:40;4.27;;;2.30;;
3405;SDS011;10008;48.682;9.016;2022-11-20T08:58:06;5.60;;;2.43;;
3405;SDS011;10008;48.682;9.016;2022-11-20T09:00:32;5.17;;;2.00;;
3405;SDS011;10008;48.682;9.016;2022-11-20T09:02:59;4.40;;;2.10;;
3405;SDS011;10008;48.682;9.016;2022-11-20T09:05:26;4.50;;;2.30;;
3405;SDS011;10008;48.682;9.016;2022-11-20T09:07:55;5.60;;;2.43;;
3405;SDS011;10008;48.682;9.016;2022-11-20T09:10:22;4.33;;;2.10;;
3405;SDS011;10008;48.682;9.016;2022-11-20T09:12:51;4.83;;;2.00;;
3405;SDS011;10008;48.682;9.016;2022-11-20T09:15:17;3.77;;;1.47;;
3405;SDS011;10008;48.682;9.016;2022-11-20T09:17:50;3.80;;;1.47;;
3405;SDS011;10008;48.682;9.016;2022-11-20T09:20:26;3.97;;;1.77;;
3405;SDS011;10008;48.682;9.016;2022-11-20T09:22:53;3.93;;;1.57;;
3405;SDS011;10008;48.682;9.016;2022-11-20T09:25:23;3.60;;;1.30;;
3405;SDS011;10008;48.682;9.016;2022-11-20T09:27:56;4.40;;;1.43;;
3405;SDS011;10008;48.682;9.016;2022-11-20T09:30:24;4.43;;;1.40;;
3405;SDS011;10008;48.682;9.016;2022-11-20T09:32:51;3.93;;;1.40;;
3405;SDS011;10008;48.682;9.016;2022-11-20T09:35:17;3.80;;;1.30;;
3405;SDS011;10008;48.682;9.016;2022-11-20T09:37:43;3.07;;;1.00;;
3405;SDS011;10008;48.682;9.016;2022-11-20T09:40:22;4.53;;;2.30;;
3405;SDS011;10008;48.682;9.016;2022-11-20T09:43:03;3.60;;;1.13;;
3405;SDS011;10008;48.682;9.016;2022-11-20T09:46:08;4.00;;;1.70;;
3405;SDS011;10008;48.682;9.016;2022-11-20T09:54:18;3.77;;;1.10;;
3405;SDS011;10008;48.682;9.016;2022-11-20T09:57:10;2.97;;;0.90;;
3405;SDS011;10008;48.682;9.016;2022-11-20T09:59:40;3.77;;;1.00;;
3405;SDS011;10008;48.682;9.016;2022-11-20T10:02:28;3.23;;;0.90;;
3405;SDS011;10008;48.682;9.016;2022-11-20T10:05:11;3.70;;;1.37;;
3405;SDS011;10008;48.682;9.016;2022-11-20T10:07:48;4.53;;;1.57;;
3405;SDS011;10008;48.682;9.016;2022-11-20T10:10:29;3.90;;;1.97;;
3405;SDS011;10008;48.682;9.016;2022-11-20T10:26:22;3.63;;;1.40;;
3405;SDS011;10008;48.682;9.016;2022-11-20T10:32:14;3.70;;;1.60;;
3405;SDS011;10008;48.682;9.016;2022-11-20T10:34:57;5.03;;;1.70;;
3405;SDS011;10008;48.682;9.016;2022-11-20T10:37:26;4.50;;;1.70;;
3405;SDS011;10008;48.682;9.016;2022-11-20T10:42:30;3.80;;;1.70;;
3405;SDS011;10008;48.682;9.016;2022-11-20T10:47:49;4.33;;;1.70;;
3405;SDS011;10008;48.682;9.016;2022-11-20T10:50:19;3.90;;;1.70;;
3405;SDS011;10008;48.682;9.016;2022-11-20T10:52:51;4.13;;;1.90;;
3405;SDS011;10008;48.682;9.016;2022-11-20T10:55:32;4.97;;;1.97;;
3405;SDS011;10008;48.682;9.016;2022-11-20T11:01:15;5.73;;;2.40;;
3405;SDS011;10008;48.682;9.016;2022-11-20T11:03:43;4.50;;;2.10;;
3405;SDS011;10008;48.682;9.016;2022-11-20T11:09:00;5.60;;;2.37;;
3405;SDS011;10008;48.682;9.016;2022-11-20T11:11:33;11.00;;;2.87;;
3405;SDS011;10008;48.682;9.016;2022-11-20T11:14:10;5.40;;;2.40;;
3405;SDS011;10008;48.682;9.016;2022-11-20T11:16:44;4.80;;;1.57;;
3405;SDS011;10008;48.682;9.016;2022-11-20T11:19:18;3.93;;;1.67;;
3405;SDS011;10008;48.682;9.016;2022-11-20T11:21:47;4.00;;;1.60;;
3405;SDS011;10008;48.682;9.016;2022-11-20T11:24:25;5.20;;;2.07;;
3405;SDS011;10008;48.682;9.016;2022-11-20T11:26:54;11.13;;;6.67;;
3405;SDS011;10008;48.682;9.016;2022-11-20T11:29:25;6.20;;;2.47;;
3405;SDS011;10008;48.682;9.016;2022-11-20T11:32:06;7.00;;;3.60;;
3405;SDS011;10008;48.682;9.016;2022-11-20T11:35:03;5.30;;;2.20;;
3405;SDS011;10008;48.682;9.016;2022-11-20T11:37:43;5.20;;;1.90;;
3405;SDS011;10008;48.682;9.016;2022-11-20T11:40:10;4.20;;;1.93;;
3405;SDS011;10008;48.682;9.016;2022-11-20T11:42:41;4.80;;;2.20;;
3405;SDS011;10008;48.682;9.016;2022-11-20T11:45:14;5.63;;;1.77;;
3405;SDS011;10008;48.682;9.016;2022-11-20T11:50:13;5.03;;;1.50;;
3405;SDS011;10008;48.682;9.016;2022-11-20T11:52:54;4.70;;;1.60;;
3405;SDS011;10008;48.682;9.016;2022-11-20T11:55:52;3.80;;;1.20;;
3405;SDS011;10008;48.682;9.016;2022-11-20T11:58:43;3.57;;;1.10;;
3405;SDS011;10008;48.682;9.016;2022-11-20T12:07:10;4.70;;;1.00;;
3405;SDS011;10008;48.682;9.016;2022-11-20T12:09:43;3.30;;;0.87;;
3405;SDS011;10008;48.682;9.016;2022-11-20T12:12:16;5.27;;;1.30;;
3405;SDS011;10008;48.682;9.016;2022-11-20T12:14:46;4.00;;;0.90;;
3405;SDS011;10008;48.682;9.016;2022-11-20T12:17:15;4.93;;;1.20;;
3405;SDS011;10008;48.682;9.016;2022-11-20T12:19:43;3.60;;;1.23;;
3405;SDS011;10008;48.682;9.016;2022-11-20T12:24:50;3.13;;;0.90;;
3405;SDS011;10008;48.682;9.016;2022-11-20T12:27:30;4.50;;;1.37;;
3405;SDS011;10008;48.682;9.016;2022-11-20T12:30:19;5.30;;;1.07;;
3405;SDS011;10008;48.682;9.016;2022-11-20T12:40:40;4.00;;;1.20;;
3405;SDS011;10008;48.682;9.016;2022-11-20T12:49:06;4.10;;;1.13;;
3405;SDS011;10008;48.682;9.016;2022-11-20T12:55:15;3.27;;;0.87;;
3405;SDS011;10008;48.682;9.016;2022-11-20T13:00:21;4.80;;;1.23;;
3405;SDS011;10008;48.682;9.016;2022-11-20T13:08:28;2.80;;;0.70;;
3405;SDS011;10008;48.682;9.016;2022-11-20T13:11:00;3.70;;;0.97;;
3405;SDS011;10008;48.682;9.016;2022-11-20T13:13:36;3.10;;;0.70;;
3405;SDS011;10008;48.682;9.016;2022-11-20T13:16:07;2.90;;;0.70;;
3405;SDS011;10008;48.682;9.016;2022-11-20T13:18:47;3.87;;;0.80;;
3405;SDS011;10008;48.682;9.016;2022-11-20T13:21:17;3.93;;;0.90;;
3405;SDS011;10008;48.682;9.016;2022-11-20T13:23:45;3.80;;;0.80;;
3405;SDS011;10008;48.682;9.016;2022-11-20T13:26:19;3.70;;;0.90;;
3405;SDS011;10008;48.682;9.016;2022-11-20T13:28:47;3.50;;;0.80;;
3405;SDS011;10008;48.682;9.016;2022-11-20T13:31:31;3.50;;;1.00;;
3405;SDS011;10008;48.682;9.016;2022-11-20T13:34:00;4.63;;;1.20;;
3405;SDS011;10008;48.682;9.016;2022-11-20T13:36:29;3.97;;;0.97;;
3405;SDS011;10008;48.682;9.016;2022-11-20T13:38:56;3.47;;;0.93;;
3405;SDS011;10008;48.682;9.016;2022-11-20T13:46:47;4.47;;;1.00;;
3405;SDS011;10008;48.682;9.016;2022-11-20T13:49:32;4.60;;;1.10;;
3405;SDS011;10008;48.682;9.016;2022-11-20T13:57:45;4.33;;;0.93;;
3405;SDS011;10008;48.682;9.016;2022-11-20T14:00:20;4.07;;;1.20;;
3405;SDS011;10008;48.682;9.016;2022-11-20T14:03:21;4.70;;;1.20;;
3405;SDS011;10008;48.682;9.016;2022-11-20T14:05:46;5.30;;;1.47;;
3405;SDS011;10008;48.682;9.016;2022-11-20T14:08:24;4.30;;;1.30;;
3405;SDS011;10008;48.682;9.016;2022-11-20T14:16:30;3.50;;;1.23;;
3405;SDS011;10008;48.682;9.016;2022-11-20T14:19:17;3.93;;;1.43;;
3405;SDS011;10008;48.682;9.016;2022-11-20T14:21:44;4.30;;;1.27;;
3405;SDS011;10008;48.682;9.016;2022-11-20T14:24:11;4.80;;;1.67;;
3405;SDS011;10008;48.682;9.016;2022-11-20T14:26:41;5.20;;;1.83;;
3405;SDS011;10008;48.682;9.016;2022-11-20T14:29:13;5.10;;;1.50;;
3405;SDS011;10008;48.682;9.016;2022-11-20T14:31:46;5.50;;;1.50;;
3405;SDS011;10008;48.682;9.016;2022-11-20T14:34:17;5.10;;;1.70;;
3405;SDS011;10008;48.682;9.016;2022-11-20T14:37:04;6.90;;;1.90;;
3405;SDS011;10008;48.682;9.016;2022-11-20T14:39:35;5.10;;;2.10;;
3405;SDS011;10008;48.682;9.016;2022-11-20T14:42:10;4.43;;;1.30;;
3405;SDS011;10008;48.682;9.016;2022-11-20T14:44:40;4.10;;;1.50;;
3405;SDS011;10008;48.682;9.016;2022-11-20T14:47:08;5.43;;;1.87;;
3405;SDS011;10008;48.682;9.016;2022-11-20T14:49:37;8.20;;;2.43;;
3405;SDS011;10008;48.682;9.016;2022-11-20T14:54:43;11.80;;;5.40;;
3405;SDS011;10008;48.682;9.016;2022-11-20T14:57:19;23.47;;;11.10;;
3405;SDS011;10008;48.682;9.016;2022-11-20T15:02:43;8.33;;;4.30;;
3405;SDS011;10008;48.682;9.016;2022-11-20T15:05:10;5.47;;;2.23;;
3405;SDS011;10008;48.682;9.016;2022-11-20T15:07:37;6.10;;;3.20;;
3405;SDS011;10008;48.682;9.016;2022-11-20T15:10:26;4.90;;;2.17;;
3405;SDS011;10008;48.682;9.016;2022-11-20T15:12:53;4.50;;;1.60;;
3405;SDS011;10008;48.682;9.016;2022-11-20T15:18:10;3.80;;;1.10;;
3405;SDS011;10008;48.682;9.016;2022-11-20T15:20:41;5.97;;;2.13;;
3405;SDS011;10008;48.682;9.016;2022-11-20T15:23:17;5.23;;;1.60;;
3405;SDS011;10008;48.682;9.016;2022-11-20T15:25:44;5.43;;;1.60;;
3405;SDS011;10008;48.682;9.016;2022-11-20T15:28:18;4.40;;;1.37;;
3405;SDS011;10008;48.682;9.016;2022-11-20T15:30:50;4.07;;;1.57;;
3405;SDS011;10008;48.682;9.016;2022-11-20T15:33:16;4.00;;;1.40;;
3405;SDS011;10008;48.682;9.016;2022-11-20T15:35:42;5.17;;;1.87;;
3405;SDS011;10008;48.682;9.016;2022-11-20T15:38:09;4.93;;;1.80;;
3405;SDS011;10008;48.682;9.016;2022-11-20T15:40:35;3.60;;;1.50;;
3405;SDS011;10008;48.682;9.016;2022-11-20T15:43:01;4.57;;;1.90;;
3405;SDS011;10008;48.682;9.016;2022-11-20T15:48:16;3.83;;;1.50;;
3405;SDS011;10008;48.682;9.016;2022-11-20T15:53:23;5.70;;;2.30;;
3405;SDS011;10008;48.682;9.016;2022-11-20T15:55:49;4.30;;;1.90;;
3405;SDS011;10008;48.682;9.016;2022-11-20T15:58:15;7.00;;;2.63;;
3405;SDS011;10008;48.682;9.016;2022-11-20T16:00:44;4.30;;;1.80;;
3405;SDS011;10008;48.682;9.016;2022-11-20T16:03:13;5.73;;;2.50;;
3405;SDS011;10008;48.682;9.016;2022-11-20T16:05:40;5.80;;;2.40;;
3405;SDS011;10008;48.682;9.016;2022-11-20T16:08:06;5.63;;;2.20;;
3405;SDS011;10008;48.682;9.016;2022-11-20T16:10:32;4.80;;;2.30;;
3405;SDS011;10008;48.682;9.016;2022-11-20T16:12:58;7.63;;;3.00;;
3405;SDS011;10008;48.682;9.016;2022-11-20T16:15:43;5.43;;;2.70;;
3405;SDS011;10008;48.682;9.016;2022-11-20T16:18:18;5.10;;;2.37;;
3405;SDS011;10008;48.682;9.016;2022-11-20T16:20:46;4.57;;;2.00;;
3405;SDS011;10008;48.682;9.016;2022-11-20T16:23:17;4.27;;;1.97;;
3405;SDS011;10008;48.682;9.016;2022-11-20T16:25:43;6.70;;;2.57;;
3405;SDS011;10008;48.682;9.016;2022-11-20T16:28:09;5.67;;;2.33;;
3405;SDS011;10008;48.682;9.016;2022-11-20T16:30:36;6.07;;;2.67;;
3405;SDS011;10008;48.682;9.016;2022-11-20T16:33:02;10.07;;;2.27;;
3405;SDS011;10008;48.682;9.016;2022-11-20T16:35:29;5.50;;;2.57;;
3405;SDS011;10008;48.682;9.016;2022-11-20T16:37:55;5.37;;;2.30;;
3405;SDS011;10008;48.682;9.016;2022-11-20T16:40:23;5.80;;;2.77;;
3405;SDS011;10008;48.682;9.016;2022-11-20T16:42:49;6.47;;;2.20;;
3405;SDS011;10008;48.682;9.016;2022-11-20T16:45:15;5.83;;;2.30;;
3405;SDS011;10008;48.682;9.016;2022-11-20T16:47:41;5.63;;;2.83;;
3405;SDS011;10008;48.682;9.016;2022-11-20T16:50:08;4.70;;;2.17;;
3405;SDS011;10008;48.682;9.016;2022-11-20T16:52:34;5.20;;;2.70;;
3405;SDS011;10008;48.682;9.016;2022-11-20T16:55:00;6.00;;;2.57;;
3405;SDS011;10008;48.682;9.016;2022-11-20T16:57:29;5.20;;;2.27;;
3405;SDS011;10008;48.682;9.016;2022-11-20T16:59:57;5.73;;;2.57;;
3405;SDS011;10008;48.682;9.016;2022-11-20T17:02:23;5.60;;;2.40;;
3405;SDS011;10008;48.682;9.016;2022-11-20T17:04:50;7.00;;;3.03;;